sensor_id;sensor_type;location;lat;lon;timestamp;P1;durP1;ratioP1;P2;durP2;ratioP2
22549;SDS011;11441;57.164;-2.120;2022-09-09T00:00:17;32.40;;;6.57;;
22549;SDS011;11441;57.164;-2.120;2022-09-09T00:02:57;18.13;;;4.55;;
22549;SDS011;11441;57.164;-2.120;2022-09-09T00:05:34;22.42;;;4.82;;
22549;SDS011;11441;57.164;-2.120;2022-09-09T00:08:43;18.85;;;5.03;;
22549;SDS011;11441;57.164;-2.120;2022-09-09T00:11:36;20.88;;;4.97;;
22549;SDS011;11441;57.164;-2.120;2022-09-09T00:14:13;16.80;;;4.53;;
22549;SDS011;11441;57.164;-2.120;2022-09-09T00:17:04;17.77;;;4.68;;
22549;SDS011;11441;57.164;-2.120;2022-09-09T00:19:41;21.73;;;4.78;;
22549;SDS011;11441;57.164;-2.120;2022-09-09T00:22:23;11.40;;;3.05;;
22549;SDS011;11441;57.164;-2.120;2022-09-09T00:24:54;17.73;;;3.90;;
22549;SDS011;11441;57.164;-2.120;2022-09-09T00:27:27;18.08;;;4.00;;
22549;SDS011;11441;57.164;-2.120;2022-09-09T00:32:42;17.48;;;4.13;;
22549;SDS011;11441;57.164;-2.120;2022-09-09T00:35:42;13.20;;;3.20;;
22549;SDS011;11441;57.164;-2.120;2022-09-09T00:41:16;16.60;;;3.95;;
22549;SDS011;11441;57.164;-2.120;2022-09-09T00:44:03;18.98;;;5.85;;
22549;SDS011;11441;57.164;-2.120;2022-09-09T00:58:18;25.85;;;5.85;;
22549;SDS011;11441;57.164;-2.120;2022-09-09T01:01:08;18.48;;;4.65;;
22549;SDS011;11441;57.164;-2.120;2022-09-09T01:03:46;25.17;;;5.55;;
22549;SDS011;11441;57.164;-2.120;2022-09-09T01:06:37;23.67;;;6.03;;
22549;SDS011;11441;57.164;-2.120;2022-09-09T01:14:52;35.00;;;6.93;;
22549;SDS011;11441;57.164;-2.120;2022-09-09T01:28:19;34.72;;;7.50;;
22549;SDS011;11441;57.164;-2.120;2022-09-09T01:30:55;29.33;;;7.43;;
22549;SDS011;11441;57.164;-2.120;2022-09-09T01:33:27;29.58;;;5.95;;
22549;SDS011;11441;57.164;-2.120;2022-09-09T01:35:59;27.73;;;6.80;;
22549;SDS011;11441;57.164;-2.120;2022-09-09T01:38:36;24.95;;;5.72;;
22549;SDS011;11441;57.164;-2.120;2022-09-09T01:41:04;17.60;;;5.07;;
22549;SDS011;11441;57.164;-2.120;2022-09-09T01:43:53;19.58;;;6.07;;
22549;SDS011;11441;57.164;-2.120;2022-09-09T01:46:22;19.23;;;5.68;;
22549;SDS011;11441;57.164;-2.120;2022-09-09T01:48:50;21.35;;;4.85;;
22549;SDS011;11441;57.164;-2.120;2022-09-09T01:51:19;21.20;;;5.15;;
22549;SDS011;11441;57.164;-2.120;2022-09-09T02:02:13;23.45;;;6.50;;
22549;SDS011;11441;57.164;-2.120;2022-09-09T02:08:00;19.48;;;4.93;;
22549;SDS011;11441;57.164;-2.120;2022-09-09T02:10:58;17.08;;;4.03;;
22549;SDS011;11441;57.164;-2.120;2022-09-09T02:13:38;26.05;;;5.18;;
22549;SDS011;11441;57.164;-2.120;2022-09-09T02:16:15;17.92;;;4.07;;
22549;SDS011;11441;57.164;-2.120;2022-09-09T02:21:59;15.70;;;4.15;;
22549;SDS011;11441;57.164;-2.120;2022-09-09T02:24:28;14.25;;;3.17;;
22549;SDS011;11441;57.164;-2.120;2022-09-09T02:27:11;15.52;;;3.38;;
22549;SDS011;11441;57.164;-2.120;2022-09-09T02:29:43;15.18;;;3.20;;
22549;SDS011;11441;57.164;-2.120;2022-09-09T02:32:16;17.67;;;3.95;;
22549;SDS011;11441;57.164;-2.120;2022-09-09T02:34:56;24.85;;;4.72;;
22549;SDS011;11441;57.164;-2.120;2022-09-09T02:37:27;12.35;;;3.25;;
22549;SDS011;11441;57.164;-2.120;2022-09-09T02:40:18;16.63;;;3.83;;
22549;SDS011;11441;57.164;-2.120;2022-09-09T02:42:50;15.05;;;3.75;;
22549;SDS011;11441;57.164;-2.120;2022-09-09T02:45:20;21.98;;;4.18;;
22549;SDS011;11441;57.164;-2.120;2022-09-09T02:48:20;28.85;;;6.45;;
22549;SDS011;11441;57.164;-2.120;2022-09-09T02:51:13;24.70;;;5.40;;
22549;SDS011;11441;57.164;-2.120;2022-09-09T02:53:57;31.27;;;6.80;;
22549;SDS011;11441;57.164;-2.120;2022-09-09T02:56:38;25.58;;;5.68;;
22549;SDS011;11441;57.164;-2.120;2022-09-09T02:59:09;17.15;;;4.47;;
22549;SDS011;11441;57.164;-2.120;2022-09-09T03:01:38;24.52;;;6.43;;
22549;SDS011;11441;57.164;-2.120;2022-09-09T03:04:08;26.25;;;5.88;;
22549;SDS011;11441;57.164;-2.120;2022-09-09T03:06:55;29.63;;;7.03;;
22549;SDS011;11441;57.164;-2.120;2022-09-09T03:12:28;30.67;;;5.90;;
22549;SDS011;11441;57.164;-2.120;2022-09-09T03:14:55;27.45;;;5.43;;
22549;SDS011;11441;57.164;-2.120;2022-09-09T03:17:22;23.58;;;5.13;;
22549;SDS011;11441;57.164;-2.120;2022-09-09T03:19:53;38.95;;;6.60;;
22549;SDS011;11441;57.164;-2.120;2022-09-09T03:22:21;35.22;;;9.07;;
22549;SDS011;11441;57.164;-2.120;2022-09-09T03:24:48;28.88;;;6.22;;
22549;SDS011;11441;57.164;-2.120;2022-09-09T03:27:16;27.77;;;5.85;;
22549;SDS011;11441;57.164;-2.120;2022-09-09T03:29:43;22.17;;;4.47;;
22549;SDS011;11441;57.164;-2.120;2022-09-09T03:32:16;26.60;;;6.22;;
22549;SDS011;11441;57.164;-2.120;2022-09-09T03:34:44;23.80;;;5.53;;
22549;SDS011;11441;57.164;-2.120;2022-09-09T03:37:13;16.13;;;4.60;;
22549;SDS011;11441;57.164;-2.120;2022-09-09T03:39:40;23.77;;;5.25;;
22549;SDS011;11441;57.164;-2.120;2022-09-09T03:44:57;21.42;;;5.25;;
22549;SDS011;11441;57.164;-2.120;2022-09-09T03:47:27;26.02;;;6.45;;
22549;SDS011;11441;57.164;-2.120;2022-09-09T03:50:02;28.75;;;6.80;;
22549;SDS011;11441;57.164;-2.120;2022-09-09T03:52:31;35.92;;;6.93;;
22549;SDS011;11441;57.164;-2.120;2022-09-09T03:54:58;22.70;;;5.93;;
22549;SDS011;11441;57.164;-2.120;2022-09-09T03:57:25;24.58;;;4.97;;
22549;SDS011;11441;57.164;-2.120;2022-09-09T03:59:52;26.60;;;6.30;;
22549;SDS011;11441;57.164;-2.120;2022-09-09T04:02:18;22.77;;;4.70;;
22549;SDS011;11441;57.164;-2.120;2022-09-09T04:05:04;25.83;;;5.85;;
22549;SDS011;11441;57.164;-2.120;2022-09-09T04:07:33;18.58;;;4.30;;
22549;SDS011;11441;57.164;-2.120;2022-09-09T04:10:00;18.88;;;4.15;;
22549;SDS011;11441;57.164;-2.120;2022-09-09T04:12:28;22.27;;;6.43;;
22549;SDS011;11441;57.164;-2.120;2022-09-09T04:14:56;23.92;;;5.15;;
22549;SDS011;11441;57.164;-2.120;2022-09-09T04:17:23;20.45;;;5.05;;
22549;SDS011;11441;57.164;-2.120;2022-09-09T04:20:08;11.25;;;3.28;;
22549;SDS011;11441;57.164;-2.120;2022-09-09T04:25:24;35.97;;;7.85;;
22549;SDS011;11441;57.164;-2.120;2022-09-09T04:27:54;22.30;;;5.65;;
22549;SDS011;11441;57.164;-2.120;2022-09-09T04:30:22;25.38;;;5.60;;
22549;SDS011;11441;57.164;-2.120;2022-09-09T04:32:49;14.68;;;3.95;;
22549;SDS011;11441;57.164;-2.120;2022-09-09T04:35:16;27.77;;;6.15;;
22549;SDS011;11441;57.164;-2.120;2022-09-09T04:37:44;29.20;;;6.30;;
22549;SDS011;11441;57.164;-2.120;2022-09-09T04:42:58;36.72;;;8.15;;
22549;SDS011;11441;57.164;-2.120;2022-09-09T04:45:26;38.65;;;6.45;;
22549;SDS011;11441;57.164;-2.120;2022-09-09T04:47:53;27.52;;;6.18;;
22549;SDS011;11441;57.164;-2.120;2022-09-09T04:50:21;34.22;;;7.22;;
22549;SDS011;11441;57.164;-2.120;2022-09-09T04:53:09;33.70;;;8.43;;
22549;SDS011;11441;57.164;-2.120;2022-09-09T04:55:37;37.00;;;8.48;;
22549;SDS011;11441;57.164;-2.120;2022-09-09T04:58:05;20.30;;;5.40;;
22549;SDS011;11441;57.164;-2.120;2022-09-09T05:00:34;22.65;;;5.15;;
22549;SDS011;11441;57.164;-2.120;2022-09-09T05:03:05;23.25;;;5.75;;
22549;SDS011;11441;57.164;-2.120;2022-09-09T05:05:33;19.05;;;4.70;;
22549;SDS011;11441;57.164;-2.120;2022-09-09T05:08:03;24.55;;;5.78;;
22549;SDS011;11441;57.164;-2.120;2022-09-09T05:10:32;16.98;;;5.00;;
22549;SDS011;11441;57.164;-2.120;2022-09-09T05:13:00;20.27;;;4.60;;
22549;SDS011;11441;57.164;-2.120;2022-09-09T05:15:29;16.35;;;5.10;;
22549;SDS011;11441;57.164;-2.120;2022-09-09T05:17:56;24.92;;;4.72;;
22549;SDS011;11441;57.164;-2.120;2022-09-09T05:20:29;25.45;;;5.68;;
22549;SDS011;11441;57.164;-2.120;2022-09-09T05:22:56;24.08;;;5.18;;
22549;SDS011;11441;57.164;-2.120;2022-09-09T05:25:28;28.30;;;6.75;;
22549;SDS011;11441;57.164;-2.120;2022-09-09T05:27:55;27.83;;;6.65;;
22549;SDS011;11441;57.164;-2.120;2022-09-09T05:30:22;30.30;;;7.05;;
22549;SDS011;11441;57.164;-2.120;2022-09-09T05:32:50;29.90;;;7.97;;
22549;SDS011;11441;57.164;-2.120;2022-09-09T05:35:17;24.75;;;6.03;;
22549;SDS011;11441;57.164;-2.120;2022-09-09T05:37:45;28.60;;;5.97;;
22549;SDS011;11441;57.164;-2.120;2022-09-09T05:40:13;33.03;;;6.75;;
22549;SDS011;11441;57.164;-2.120;2022-09-09T05:42:41;35.28;;;7.25;;
22549;SDS011;11441;57.164;-2.120;2022-09-09T05:45:08;33.55;;;7.03;;
22549;SDS011;11441;57.164;-2.120;2022-09-09T05:47:54;18.50;;;5.38;;
22549;SDS011;11441;57.164;-2.120;2022-09-09T05:53:07;33.53;;;6.50;;
22549;SDS011;11441;57.164;-2.120;2022-09-09T05:55:35;26.45;;;5.70;;
22549;SDS011;11441;57.164;-2.120;2022-09-09T05:58:03;43.67;;;9.43;;
22549;SDS011;11441;57.164;-2.120;2022-09-09T06:00:31;30.88;;;7.13;;
22549;SDS011;11441;57.164;-2.120;2022-09-09T06:02:59;39.45;;;8.73;;
22549;SDS011;11441;57.164;-2.120;2022-09-09T06:05:26;44.50;;;8.52;;
22549;SDS011;11441;57.164;-2.120;2022-09-09T06:07:54;38.30;;;8.00;;
22549;SDS011;11441;57.164;-2.120;2022-09-09T06:10:22;31.63;;;6.50;;
22549;SDS011;11441;57.164;-2.120;2022-09-09T06:12:52;37.40;;;8.38;;
22549;SDS011;11441;57.164;-2.120;2022-09-09T06:15:20;31.75;;;7.40;;
22549;SDS011;11441;57.164;-2.120;2022-09-09T06:17:47;33.92;;;7.53;;
22549;SDS011;11441;57.164;-2.120;2022-09-09T06:20:21;30.73;;;7.93;;
22549;SDS011;11441;57.164;-2.120;2022-09-09T06:22:48;40.88;;;7.35;;
22549;SDS011;11441;57.164;-2.120;2022-09-09T06:25:15;33.20;;;6.90;;
22549;SDS011;11441;57.164;-2.120;2022-09-09T06:27:43;24.10;;;5.97;;
22549;SDS011;11441;57.164;-2.120;2022-09-09T06:30:14;30.50;;;7.80;;
22549;SDS011;11441;57.164;-2.120;2022-09-09T06:32:59;32.85;;;8.20;;
22549;SDS011;11441;57.164;-2.120;2022-09-09T06:35:26;31.10;;;7.30;;
22549;SDS011;11441;57.164;-2.120;2022-09-09T06:37:53;33.10;;;7.45;;
22549;SDS011;11441;57.164;-2.120;2022-09-09T06:40:19;38.70;;;7.30;;
22549;SDS011;11441;57.164;-2.120;2022-09-09T06:42:47;35.90;;;7.70;;
22549;SDS011;11441;57.164;-2.120;2022-09-09T06:45:31;47.55;;;8.57;;
22549;SDS011;11441;57.164;-2.120;2022-09-09T06:47:58;33.70;;;7.22;;
22549;SDS011;11441;57.164;-2.120;2022-09-09T06:50:25;31.23;;;6.18;;
22549;SDS011;11441;57.164;-2.120;2022-09-09T06:52:53;32.67;;;7.25;;
22549;SDS011;11441;57.164;-2.120;2022-09-09T06:55:20;33.35;;;7.60;;
22549;SDS011;11441;57.164;-2.120;2022-09-09T06:57:47;34.17;;;7.70;;
22549;SDS011;11441;57.164;-2.120;2022-09-09T07:00:20;29.10;;;7.28;;
22549;SDS011;11441;57.164;-2.120;2022-09-09T07:03:05;29.02;;;5.32;;
22549;SDS011;11441;57.164;-2.120;2022-09-09T07:08:24;23.70;;;5.25;;
22549;SDS011;11441;57.164;-2.120;2022-09-09T07:10:54;30.92;;;6.63;;
22549;SDS011;11441;57.164;-2.120;2022-09-09T07:13:24;20.52;;;5.70;;
22549;SDS011;11441;57.164;-2.120;2022-09-09T07:15:53;32.38;;;6.47;;
22549;SDS011;11441;57.164;-2.120;2022-09-09T07:18:20;36.25;;;6.22;;
22549;SDS011;11441;57.164;-2.120;2022-09-09T07:20:53;26.33;;;6.88;;
22549;SDS011;11441;57.164;-2.120;2022-09-09T07:23:25;29.27;;;6.40;;
22549;SDS011;11441;57.164;-2.120;2022-09-09T07:25:52;24.90;;;6.00;;
22549;SDS011;11441;57.164;-2.120;2022-09-09T07:28:20;30.90;;;6.75;;
22549;SDS011;11441;57.164;-2.120;2022-09-09T07:30:55;20.15;;;4.47;;
22549;SDS011;11441;57.164;-2.120;2022-09-09T07:33:24;24.80;;;5.88;;
22549;SDS011;11441;57.164;-2.120;2022-09-09T07:35:52;24.13;;;5.30;;
22549;SDS011;11441;57.164;-2.120;2022-09-09T07:38:20;22.80;;;5.70;;
22549;SDS011;11441;57.164;-2.120;2022-09-09T07:40:47;29.98;;;6.70;;
22549;SDS011;11441;57.164;-2.120;2022-09-09T07:43:15;27.75;;;5.90;;
22549;SDS011;11441;57.164;-2.120;2022-09-09T07:45:44;20.52;;;5.93;;
22549;SDS011;11441;57.164;-2.120;2022-09-09T07:48:11;19.60;;;5.45;;
22549;SDS011;11441;57.164;-2.120;2022-09-09T07:51:10;23.25;;;5.25;;
22549;SDS011;11441;57.164;-2.120;2022-09-09T07:53:38;23.27;;;5.15;;
22549;SDS011;11441;57.164;-2.120;2022-09-09T07:56:07;27.08;;;6.03;;
22549;SDS011;11441;57.164;-2.120;2022-09-09T07:58:37;24.13;;;4.93;;
22549;SDS011;11441;57.164;-2.120;2022-09-09T08:01:06;30.77;;;6.43;;
22549;SDS011;11441;57.164;-2.120;2022-09-09T08:03:38;18.45;;;4.25;;
22549;SDS011;11441;57.164;-2.120;2022-09-09T08:06:06;23.73;;;5.30;;
22549;SDS011;11441;57.164;-2.120;2022-09-09T08:08:35;20.95;;;5.45;;
22549;SDS011;11441;57.164;-2.120;2022-09-09T08:11:07;23.40;;;5.53;;
22549;SDS011;11441;57.164;-2.120;2022-09-09T08:13:36;21.27;;;4.30;;
22549;SDS011;11441;57.164;-2.120;2022-09-09T08:16:06;32.25;;;5.90;;
22549;SDS011;11441;57.164;-2.120;2022-09-09T08:18:35;23.73;;;5.57;;
22549;SDS011;11441;57.164;-2.120;2022-09-09T08:21:09;24.33;;;6.68;;
22549;SDS011;11441;57.164;-2.120;2022-09-09T08:23:40;19.48;;;5.18;;
22549;SDS011;11441;57.164;-2.120;2022-09-09T08:26:16;21.73;;;5.53;;
22549;SDS011;11441;57.164;-2.120;2022-09-09T08:29:05;26.80;;;5.78;;
22549;SDS011;11441;57.164;-2.120;2022-09-09T08:31:35;19.33;;;5.43;;
22549;SDS011;11441;57.164;-2.120;2022-09-09T08:36:55;24.63;;;5.38;;
22549;SDS011;11441;57.164;-2.120;2022-09-09T08:39:28;24.52;;;4.82;;
22549;SDS011;11441;57.164;-2.120;2022-09-09T08:42:08;30.17;;;6.53;;
22549;SDS011;11441;57.164;-2.120;2022-09-09T08:55:50;26.88;;;5.60;;
22549;SDS011;11441;57.164;-2.120;2022-09-09T08:58:57;14.80;;;4.55;;
22549;SDS011;11441;57.164;-2.120;2022-09-09T09:04:45;16.30;;;3.72;;
22549;SDS011;11441;57.164;-2.120;2022-09-09T09:13:11;15.90;;;4.40;;
22549;SDS011;11441;57.164;-2.120;2022-09-09T09:15:46;19.48;;;4.50;;
22549;SDS011;11441;57.164;-2.120;2022-09-09T09:18:20;25.77;;;5.22;;
22549;SDS011;11441;57.164;-2.120;2022-09-09T09:23:22;16.60;;;4.55;;
22549;SDS011;11441;57.164;-2.120;2022-09-09T09:25:58;15.82;;;3.83;;
22549;SDS011;11441;57.164;-2.120;2022-09-09T09:28:31;15.05;;;3.28;;
22549;SDS011;11441;57.164;-2.120;2022-09-09T09:31:07;12.82;;;3.22;;
22549;SDS011;11441;57.164;-2.120;2022-09-09T09:33:57;15.35;;;3.70;;
22549;SDS011;11441;57.164;-2.120;2022-09-09T09:36:45;14.02;;;3.13;;
22549;SDS011;11441;57.164;-2.120;2022-09-09T09:39:26;14.55;;;3.95;;
22549;SDS011;11441;57.164;-2.120;2022-09-09T09:42:16;21.48;;;4.70;;
22549;SDS011;11441;57.164;-2.120;2022-09-09T09:44:50;19.40;;;3.33;;
22549;SDS011;11441;57.164;-2.120;2022-09-09T09:47:20;16.45;;;3.97;;
22549;SDS011;11441;57.164;-2.120;2022-09-09T09:49:56;20.38;;;3.53;;
22549;SDS011;11441;57.164;-2.120;2022-09-09T09:52:31;16.40;;;4.32;;
22549;SDS011;11441;57.164;-2.120;2022-09-09T09:55:03;18.80;;;4.82;;
22549;SDS011;11441;57.164;-2.120;2022-09-09T09:57:34;13.80;;;2.92;;
22549;SDS011;11441;57.164;-2.120;2022-09-09T10:03:35;15.45;;;3.33;;
22549;SDS011;11441;57.164;-2.120;2022-09-09T10:06:06;16.98;;;4.10;;
22549;SDS011;11441;57.164;-2.120;2022-09-09T10:08:33;19.15;;;4.03;;
22549;SDS011;11441;57.164;-2.120;2022-09-09T10:11:21;19.98;;;3.90;;
22549;SDS011;11441;57.164;-2.120;2022-09-09T10:14:21;14.63;;;3.50;;
22549;SDS011;11441;57.164;-2.120;2022-09-09T10:19:37;12.93;;;2.92;;
22549;SDS011;11441;57.164;-2.120;2022-09-09T10:25:18;12.73;;;3.42;;
22549;SDS011;11441;57.164;-2.120;2022-09-09T10:28:00;16.50;;;3.88;;
22549;SDS011;11441;57.164;-2.120;2022-09-09T10:31:11;17.40;;;3.90;;
22549;SDS011;11441;57.164;-2.120;2022-09-09T10:36:45;16.98;;;3.53;;
22549;SDS011;11441;57.164;-2.120;2022-09-09T10:39:23;15.32;;;3.67;;
22549;SDS011;11441;57.164;-2.120;2022-09-09T10:53:41;16.70;;;3.95;;
22549;SDS011;11441;57.164;-2.120;2022-09-09T10:56:20;18.77;;;3.78;;
22549;SDS011;11441;57.164;-2.120;2022-09-09T10:58:55;23.67;;;5.13;;
22549;SDS011;11441;57.164;-2.120;2022-09-09T11:01:44;20.55;;;5.18;;
22549;SDS011;11441;57.164;-2.120;2022-09-09T11:04:21;27.67;;;5.85;;
22549;SDS011;11441;57.164;-2.120;2022-09-09T11:06:52;13.25;;;4.18;;
22549;SDS011;11441;57.164;-2.120;2022-09-09T11:09:22;19.20;;;4.40;;
22549;SDS011;11441;57.164;-2.120;2022-09-09T11:11:54;25.25;;;5.47;;
22549;SDS011;11441;57.164;-2.120;2022-09-09T11:17:15;22.17;;;5.10;;
22549;SDS011;11441;57.164;-2.120;2022-09-09T11:20:05;21.95;;;4.78;;
22549;SDS011;11441;57.164;-2.120;2022-09-09T11:22:39;23.63;;;4.70;;
22549;SDS011;11441;57.164;-2.120;2022-09-09T11:28:10;16.05;;;3.33;;
22549;SDS011;11441;57.164;-2.120;2022-09-09T11:41:48;15.43;;;3.75;;
22549;SDS011;11441;57.164;-2.120;2022-09-09T11:44:26;9.43;;;2.55;;
22549;SDS011;11441;57.164;-2.120;2022-09-09T11:46:56;16.42;;;3.58;;
22549;SDS011;11441;57.164;-2.120;2022-09-09T11:50:10;14.93;;;3.45;;
22549;SDS011;11441;57.164;-2.120;2022-09-09T11:53:05;15.50;;;3.70;;
22549;SDS011;11441;57.164;-2.120;2022-09-09T11:55:41;14.45;;;3.65;;
22549;SDS011;11441;57.164;-2.120;2022-09-09T12:00:57;8.02;;;2.40;;
22549;SDS011;11441;57.164;-2.120;2022-09-09T12:06:33;11.77;;;2.28;;
22549;SDS011;11441;57.164;-2.120;2022-09-09T12:09:13;9.50;;;3.35;;
22549;SDS011;11441;57.164;-2.120;2022-09-09T12:12:07;16.58;;;3.30;;
22549;SDS011;11441;57.164;-2.120;2022-09-09T12:14:53;9.18;;;2.15;;
22549;SDS011;11441;57.164;-2.120;2022-09-09T12:17:30;16.52;;;3.55;;
22549;SDS011;11441;57.164;-2.120;2022-09-09T12:20:14;11.38;;;2.53;;
22549;SDS011;11441;57.164;-2.120;2022-09-09T12:22:57;13.70;;;2.72;;
22549;SDS011;11441;57.164;-2.120;2022-09-09T12:25:35;9.82;;;2.28;;
22549;SDS011;11441;57.164;-2.120;2022-09-09T12:31:18;15.60;;;3.25;;
22549;SDS011;11441;57.164;-2.120;2022-09-09T12:34:02;8.73;;;2.30;;
22549;SDS011;11441;57.164;-2.120;2022-09-09T12:36:55;10.88;;;2.67;;
22549;SDS011;11441;57.164;-2.120;2022-09-09T12:39:31;17.20;;;3.30;;
22549;SDS011;11441;57.164;-2.120;2022-09-09T12:42:21;12.73;;;3.53;;
22549;SDS011;11441;57.164;-2.120;2022-09-09T12:44:52;9.50;;;2.63;;
22549;SDS011;11441;57.164;-2.120;2022-09-09T12:47:25;11.80;;;2.75;;
22549;SDS011;11441;57.164;-2.120;2022-09-09T12:49:56;9.95;;;2.40;;
22549;SDS011;11441;57.164;-2.120;2022-09-09T12:52:26;12.35;;;2.28;;
22549;SDS011;11441;57.164;-2.120;2022-09-09T12:54:58;11.55;;;2.55;;
22549;SDS011;11441;57.164;-2.120;2022-09-09T12:57:28;10.80;;;2.53;;
22549;SDS011;11441;57.164;-2.120;2022-09-09T13:00:11;8.05;;;2.25;;
22549;SDS011;11441;57.164;-2.120;2022-09-09T13:08:04;11.10;;;2.60;;
22549;SDS011;11441;57.164;-2.120;2022-09-09T13:10:38;8.02;;;2.30;;
22549;SDS011;11441;57.164;-2.120;2022-09-09T13:13:26;12.27;;;2.38;;
22549;SDS011;11441;57.164;-2.120;2022-09-09T13:15:57;6.78;;;2.15;;
22549;SDS011;11441;57.164;-2.120;2022-09-09T13:18:29;10.15;;;3.17;;
22549;SDS011;11441;57.164;-2.120;2022-09-09T13:20:59;7.93;;;2.42;;
22549;SDS011;11441;57.164;-2.120;2022-09-09T13:23:28;7.65;;;2.15;;
22549;SDS011;11441;57.164;-2.120;2022-09-09T13:25:58;12.52;;;3.05;;
22549;SDS011;11441;57.164;-2.120;2022-09-09T13:28:28;6.03;;;1.55;;
22549;SDS011;11441;57.164;-2.120;2022-09-09T13:31:04;17.02;;;2.80;;
22549;SDS011;11441;57.164;-2.120;2022-09-09T13:33:34;17.05;;;3.22;;
22549;SDS011;11441;57.164;-2.120;2022-09-09T13:36:10;10.95;;;2.55;;
22549;SDS011;11441;57.164;-2.120;2022-09-09T13:39:02;11.77;;;2.75;;
22549;SDS011;11441;57.164;-2.120;2022-09-09T13:41:31;11.30;;;3.53;;
22549;SDS011;11441;57.164;-2.120;2022-09-09T13:43:58;10.40;;;2.15;;
22549;SDS011;11441;57.164;-2.120;2022-09-09T13:46:34;16.60;;;3.47;;
22549;SDS011;11441;57.164;-2.120;2022-09-09T13:49:21;12.07;;;3.17;;
22549;SDS011;11441;57.164;-2.120;2022-09-09T13:51:50;11.00;;;2.63;;
22549;SDS011;11441;57.164;-2.120;2022-09-09T13:54:20;9.90;;;2.40;;
22549;SDS011;11441;57.164;-2.120;2022-09-09T13:56:47;12.43;;;2.53;;
22549;SDS011;11441;57.164;-2.120;2022-09-09T13:59:17;39.42;;;6.22;;
22549;SDS011;11441;57.164;-2.120;2022-09-09T14:01:48;13.10;;;2.47;;
22549;SDS011;11441;57.164;-2.120;2022-09-09T14:04:19;13.55;;;3.50;;
22549;SDS011;11441;57.164;-2.120;2022-09-09T14:06:47;12.82;;;3.25;;
22549;SDS011;11441;57.164;-2.120;2022-09-09T14:09:16;13.40;;;2.25;;
22549;SDS011;11441;57.164;-2.120;2022-09-09T14:11:44;9.40;;;2.60;;
22549;SDS011;11441;57.164;-2.120;2022-09-09T14:14:13;10.18;;;2.00;;
22549;SDS011;11441;57.164;-2.120;2022-09-09T14:16:40;12.40;;;3.58;;
22549;SDS011;11441;57.164;-2.120;2022-09-09T14:19:08;11.43;;;2.58;;
22549;SDS011;11441;57.164;-2.120;2022-09-09T14:21:35;18.55;;;3.67;;
22549;SDS011;11441;57.164;-2.120;2022-09-09T14:24:02;9.13;;;2.30;;
22549;SDS011;11441;57.164;-2.120;2022-09-09T14:26:29;12.00;;;2.45;;
22549;SDS011;11441;57.164;-2.120;2022-09-09T14:28:56;12.95;;;2.88;;
22549;SDS011;11441;57.164;-2.120;2022-09-09T14:34:09;14.00;;;3.45;;
22549;SDS011;11441;57.164;-2.120;2022-09-09T14:36:55;14.18;;;3.22;;
22549;SDS011;11441;57.164;-2.120;2022-09-09T14:39:22;8.70;;;2.88;;
22549;SDS011;11441;57.164;-2.120;2022-09-09T14:41:48;14.75;;;3.17;;
22549;SDS011;11441;57.164;-2.120;2022-09-09T14:44:15;12.40;;;2.47;;
22549;SDS011;11441;57.164;-2.120;2022-09-09T14:46:42;12.48;;;2.58;;
22549;SDS011;11441;57.164;-2.120;2022-09-09T14:49:09;15.77;;;3.05;;
22549;SDS011;11441;57.164;-2.120;2022-09-09T14:51:39;16.05;;;2.80;;
22549;SDS011;11441;57.164;-2.120;2022-09-09T14:54:06;17.15;;;2.58;;
22549;SDS011;11441;57.164;-2.120;2022-09-09T14:56:33;11.02;;;2.88;;
22549;SDS011;11441;57.164;-2.120;2022-09-09T14:59:19;9.48;;;2.33;;
22549;SDS011;11441;57.164;-2.120;2022-09-09T15:01:46;10.57;;;2.42;;
22549;SDS011;11441;57.164;-2.120;2022-09-09T15:04:12;9.98;;;2.60;;
22549;SDS011;11441;57.164;-2.120;2022-09-09T15:06:41;7.93;;;2.25;;
22549;SDS011;11441;57.164;-2.120;2022-09-09T15:09:10;13.40;;;2.88;;
22549;SDS011;11441;57.164;-2.120;2022-09-09T15:11:37;12.05;;;3.10;;
22549;SDS011;11441;57.164;-2.120;2022-09-09T15:14:05;10.55;;;2.55;;
22549;SDS011;11441;57.164;-2.120;2022-09-09T15:16:34;11.38;;;2.88;;
22549;SDS011;11441;57.164;-2.120;2022-09-09T15:19:01;9.45;;;2.53;;
22549;SDS011;11441;57.164;-2.120;2022-09-09T15:21:30;16.42;;;3.75;;
22549;SDS011;11441;57.164;-2.120;2022-09-09T15:23:59;17.52;;;3.70;;
22549;SDS011;11441;57.164;-2.120;2022-09-09T15:26:26;11.82;;;2.72;;
22549;SDS011;11441;57.164;-2.120;2022-09-09T15:28:53;16.13;;;3.55;;
22549;SDS011;11441;57.164;-2.120;2022-09-09T15:31:22;13.43;;;3.13;;
22549;SDS011;11441;57.164;-2.120;2022-09-09T15:33:56;12.93;;;3.08;;
22549;SDS011;11441;57.164;-2.120;2022-09-09T15:36:28;14.82;;;3.55;;
22549;SDS011;11441;57.164;-2.120;2022-09-09T15:39:15;10.52;;;3.17;;
22549;SDS011;11441;57.164;-2.120;2022-09-09T15:41:44;13.88;;;3.60;;
22549;SDS011;11441;57.164;-2.120;2022-09-09T15:44:13;13.13;;;3.25;;
22549;SDS011;11441;57.164;-2.120;2022-09-09T15:46:59;17.70;;;3.95;;
22549;SDS011;11441;57.164;-2.120;2022-09-09T15:49:26;15.15;;;3.22;;
22549;SDS011;11441;57.164;-2.120;2022-09-09T15:51:54;13.55;;;2.95;;
22549;SDS011;11441;57.164;-2.120;2022-09-09T15:54:24;12.18;;;3.63;;
22549;SDS011;11441;57.164;-2.120;2022-09-09T15:56:53;12.00;;;3.38;;
22549;SDS011;11441;57.164;-2.120;2022-09-09T15:59:22;18.65;;;3.72;;
22549;SDS011;11441;57.164;-2.120;2022-09-09T16:01:54;14.60;;;3.80;;
22549;SDS011;11441;57.164;-2.120;2022-09-09T16:04:22;13.02;;;3.15;;
22549;SDS011;11441;57.164;-2.120;2022-09-09T16:06:51;11.95;;;2.83;;
22549;SDS011;11441;57.164;-2.120;2022-09-09T16:09:38;18.10;;;4.30;;
22549;SDS011;11441;57.164;-2.120;2022-09-09T16:12:06;11.63;;;3.33;;
22549;SDS011;11441;57.164;-2.120;2022-09-09T16:14:33;11.88;;;2.70;;
22549;SDS011;11441;57.164;-2.120;2022-09-09T16:17:03;9.90;;;3.25;;
22549;SDS011;11441;57.164;-2.120;2022-09-09T16:19:31;14.30;;;3.65;;
22549;SDS011;11441;57.164;-2.120;2022-09-09T16:21:58;14.50;;;3.85;;
22549;SDS011;11441;57.164;-2.120;2022-09-09T16:24:25;15.38;;;4.47;;
22549;SDS011;11441;57.164;-2.120;2022-09-09T16:26:53;21.95;;;4.97;;
22549;SDS011;11441;57.164;-2.120;2022-09-09T16:29:21;22.75;;;5.00;;
22549;SDS011;11441;57.164;-2.120;2022-09-09T16:31:50;16.88;;;4.43;;
22549;SDS011;11441;57.164;-2.120;2022-09-09T16:34:21;14.77;;;3.80;;
22549;SDS011;11441;57.164;-2.120;2022-09-09T16:36:48;17.90;;;4.70;;
22549;SDS011;11441;57.164;-2.120;2022-09-09T16:39:16;17.35;;;4.88;;
22549;SDS011;11441;57.164;-2.120;2022-09-09T16:41:45;19.77;;;5.13;;
22549;SDS011;11441;57.164;-2.120;2022-09-09T16:44:14;18.27;;;3.58;;
22549;SDS011;11441;57.164;-2.120;2022-09-09T16:46:43;14.68;;;3.03;;
22549;SDS011;11441;57.164;-2.120;2022-09-09T16:49:12;13.60;;;2.95;;
22549;SDS011;11441;57.164;-2.120;2022-09-09T16:51:48;18.35;;;3.10;;
22549;SDS011;11441;57.164;-2.120;2022-09-09T16:54:19;12.90;;;3.33;;
22549;SDS011;11441;57.164;-2.120;2022-09-09T16:56:48;14.93;;;3.85;;
22549;SDS011;11441;57.164;-2.120;2022-09-09T16:59:19;16.20;;;3.70;;
22549;SDS011;11441;57.164;-2.120;2022-09-09T17:01:48;23.55;;;4.93;;
22549;SDS011;11441;57.164;-2.120;2022-09-09T17:04:34;15.27;;;4.22;;
22549;SDS011;11441;57.164;-2.120;2022-09-09T17:07:01;16.27;;;4.57;;
22549;SDS011;11441;57.164;-2.120;2022-09-09T17:09:29;23.50;;;4.90;;
22549;SDS011;11441;57.164;-2.120;2022-09-09T17:11:57;17.85;;;3.55;;
22549;SDS011;11441;57.164;-2.120;2022-09-09T17:14:25;14.50;;;3.80;;
22549;SDS011;11441;57.164;-2.120;2022-09-09T17:16:52;14.18;;;4.47;;
22549;SDS011;11441;57.164;-2.120;2022-09-09T17:19:19;20.92;;;4.53;;
22549;SDS011;11441;57.164;-2.120;2022-09-09T17:21:45;15.75;;;3.75;;
22549;SDS011;11441;57.164;-2.120;2022-09-09T17:24:33;13.60;;;3.67;;
22549;SDS011;11441;57.164;-2.120;2022-09-09T17:27:00;10.05;;;2.65;;